sensor_id;sensor_type;location;lat;lon;timestamp;P1;durP1;ratioP1;P2;durP2;ratioP2
35126;SDS011;21300;52.006;5.798;2024-03-22T00:00:02;44.10;;;21.38;;
35126;SDS011;21300;52.006;5.798;2024-03-22T00:02:29;40.90;;;21.15;;
35126;SDS011;21300;52.006;5.798;2024-03-22T00:04:54;44.35;;;22.25;;
35126;SDS011;21300;52.006;5.798;2024-03-22T00:07:20;41.22;;;20.65;;
35126;SDS011;21300;52.006;5.798;2024-03-22T00:09:45;44.97;;;22.20;;
35126;SDS011;21300;52.006;5.798;2024-03-22T00:12:11;42.05;;;19.92;;
35126;SDS011;21300;52.006;5.798;2024-03-22T00:14:37;44.42;;;19.95;;
35126;SDS011;21300;52.006;5.798;2024-03-22T00:17:02;43.13;;;21.58;;
35126;SDS011;21300;52.006;5.798;2024-03-22T00:19:28;44.10;;;21.67;;
35126;SDS011;21300;52.006;5.798;2024-03-22T00:21:53;39.70;;;20.13;;
35126;SDS011;21300;52.006;5.798;2024-03-22T00:24:19;49.13;;;23.05;;
35126;SDS011;21300;52.006;5.798;2024-03-22T00:26:45;41.72;;;22.13;;
35126;SDS011;21300;52.006;5.798;2024-03-22T00:29:10;41.58;;;21.27;;
35126;SDS011;21300;52.006;5.798;2024-03-22T00:31:36;45.78;;;22.17;;
35126;SDS011;21300;52.006;5.798;2024-03-22T00:34:01;42.38;;;22.50;;
35126;SDS011;21300;52.006;5.798;2024-03-22T00:36:27;45.35;;;21.90;;
35126;SDS011;21300;52.006;5.798;2024-03-22T00:38:53;45.35;;;22.33;;
35126;SDS011;21300;52.006;5.798;2024-03-22T00:41:18;46.35;;;22.40;;
35126;SDS011;21300;52.006;5.798;2024-03-22T00:43:44;42.55;;;21.67;;
35126;SDS011;21300;52.006;5.798;2024-03-22T00:46:10;48.15;;;22.30;;
35126;SDS011;21300;52.006;5.798;2024-03-22T00:48:35;45.90;;;22.02;;
35126;SDS011;21300;52.006;5.798;2024-03-22T00:51:01;47.05;;;23.25;;
35126;SDS011;21300;52.006;5.798;2024-03-22T00:53:27;48.67;;;22.05;;
35126;SDS011;21300;52.006;5.798;2024-03-22T00:55:54;47.08;;;22.65;;
35126;SDS011;21300;52.006;5.798;2024-03-22T00:58:21;44.13;;;22.50;;
35126;SDS011;21300;52.006;5.798;2024-03-22T01:00:46;45.53;;;21.95;;
35126;SDS011;21300;52.006;5.798;2024-03-22T01:03:12;44.30;;;23.25;;
35126;SDS011;21300;52.006;5.798;2024-03-22T01:05:38;40.97;;;21.35;;
35126;SDS011;21300;52.006;5.798;2024-03-22T01:08:05;44.78;;;21.40;;
35126;SDS011;21300;52.006;5.798;2024-03-22T01:10:32;42.15;;;22.42;;
35126;SDS011;21300;52.006;5.798;2024-03-22T01:12:58;46.80;;;23.42;;
35126;SDS011;21300;52.006;5.798;2024-03-22T01:15:25;48.65;;;23.08;;
35126;SDS011;21300;52.006;5.798;2024-03-22T01:17:50;45.55;;;22.90;;
35126;SDS011;21300;52.006;5.798;2024-03-22T01:20:17;43.53;;;21.85;;
35126;SDS011;21300;52.006;5.798;2024-03-22T01:22:42;48.65;;;21.63;;
35126;SDS011;21300;52.006;5.798;2024-03-22T01:27:53;43.67;;;22.02;;
35126;SDS011;21300;52.006;5.798;2024-03-22T01:30:20;45.45;;;21.85;;
35126;SDS011;21300;52.006;5.798;2024-03-22T01:32:45;48.38;;;22.60;;
35126;SDS011;21300;52.006;5.798;2024-03-22T01:35:11;46.63;;;23.13;;
35126;SDS011;21300;52.006;5.798;2024-03-22T01:37:36;45.03;;;21.85;;
35126;SDS011;21300;52.006;5.798;2024-03-22T01:40:02;47.17;;;22.70;;
35126;SDS011;21300;52.006;5.798;2024-03-22T01:42:29;46.08;;;23.10;;
35126;SDS011;21300;52.006;5.798;2024-03-22T01:44:55;43.70;;;22.17;;
35126;SDS011;21300;52.006;5.798;2024-03-22T01:47:21;54.17;;;24.02;;
35126;SDS011;21300;52.006;5.798;2024-03-22T01:49:47;41.60;;;21.25;;
35126;SDS011;21300;52.006;5.798;2024-03-22T01:52:15;49.67;;;22.30;;
35126;SDS011;21300;52.006;5.798;2024-03-22T01:54:41;49.20;;;22.38;;
35126;SDS011;21300;52.006;5.798;2024-03-22T01:57:07;46.80;;;22.48;;
35126;SDS011;21300;52.006;5.798;2024-03-22T01:59:34;48.35;;;23.23;;
35126;SDS011;21300;52.006;5.798;2024-03-22T02:01:59;45.70;;;22.13;;
35126;SDS011;21300;52.006;5.798;2024-03-22T02:04:25;44.05;;;21.58;;
35126;SDS011;21300;52.006;5.798;2024-03-22T02:06:51;49.03;;;23.55;;
35126;SDS011;21300;52.006;5.798;2024-03-22T02:09:16;49.83;;;23.50;;
35126;SDS011;21300;52.006;5.798;2024-03-22T02:11:42;49.72;;;23.08;;
35126;SDS011;21300;52.006;5.798;2024-03-22T02:14:08;46.78;;;23.13;;
35126;SDS011;21300;52.006;5.798;2024-03-22T02:16:33;46.30;;;22.75;;
35126;SDS011;21300;52.006;5.798;2024-03-22T02:18:59;49.67;;;23.42;;
35126;SDS011;21300;52.006;5.798;2024-03-22T02:21:25;48.28;;;22.35;;
35126;SDS011;21300;52.006;5.798;2024-03-22T02:23:50;50.17;;;23.40;;
35126;SDS011;21300;52.006;5.798;2024-03-22T02:26:16;50.03;;;23.80;;
35126;SDS011;21300;52.006;5.798;2024-03-22T02:28:42;51.65;;;25.45;;
35126;SDS011;21300;52.006;5.798;2024-03-22T02:31:07;46.45;;;23.30;;
35126;SDS011;21300;52.006;5.798;2024-03-22T02:33:33;45.78;;;22.35;;
35126;SDS011;21300;52.006;5.798;2024-03-22T02:35:58;44.15;;;22.30;;
35126;SDS011;21300;52.006;5.798;2024-03-22T02:38:24;51.88;;;24.85;;
35126;SDS011;21300;52.006;5.798;2024-03-22T02:40:51;47.42;;;23.08;;
35126;SDS011;21300;52.006;5.798;2024-03-22T02:43:17;45.03;;;22.80;;
35126;SDS011;21300;52.006;5.798;2024-03-22T02:45:44;53.22;;;23.63;;
35126;SDS011;21300;52.006;5.798;2024-03-22T02:48:10;46.20;;;23.08;;
35126;SDS011;21300;52.006;5.798;2024-03-22T02:50:36;44.67;;;23.33;;
35126;SDS011;21300;52.006;5.798;2024-03-22T02:53:02;48.47;;;23.33;;
35126;SDS011;21300;52.006;5.798;2024-03-22T02:55:29;47.03;;;22.65;;
35126;SDS011;21300;52.006;5.798;2024-03-22T02:57:58;46.70;;;23.25;;
35126;SDS011;21300;52.006;5.798;2024-03-22T03:00:24;45.92;;;23.10;;
35126;SDS011;21300;52.006;5.798;2024-03-22T03:02:50;42.92;;;22.88;;
35126;SDS011;21300;52.006;5.798;2024-03-22T03:05:19;50.25;;;24.10;;
35126;SDS011;21300;52.006;5.798;2024-03-22T03:07:44;44.33;;;22.73;;
35126;SDS011;21300;52.006;5.798;2024-03-22T03:10:12;46.15;;;23.38;;
35126;SDS011;21300;52.006;5.798;2024-03-22T03:12:37;48.67;;;23.33;;
35126;SDS011;21300;52.006;5.798;2024-03-22T03:15:03;49.50;;;22.92;;
35126;SDS011;21300;52.006;5.798;2024-03-22T03:17:29;43.10;;;22.40;;
35126;SDS011;21300;52.006;5.798;2024-03-22T03:19:54;44.55;;;24.85;;
35126;SDS011;21300;52.006;5.798;2024-03-22T03:22:20;45.25;;;23.90;;
35126;SDS011;21300;52.006;5.798;2024-03-22T03:24:46;43.90;;;22.92;;
35126;SDS011;21300;52.006;5.798;2024-03-22T03:27:11;40.95;;;22.33;;
35126;SDS011;21300;52.006;5.798;2024-03-22T03:29:37;48.35;;;23.65;;
35126;SDS011;21300;52.006;5.798;2024-03-22T03:32:03;42.83;;;23.10;;
35126;SDS011;21300;52.006;5.798;2024-03-22T03:34:28;45.65;;;23.85;;
35126;SDS011;21300;52.006;5.798;2024-03-22T03:36:54;42.28;;;22.88;;
35126;SDS011;21300;52.006;5.798;2024-03-22T03:39:20;43.63;;;23.80;;
35126;SDS011;21300;52.006;5.798;2024-03-22T03:41:46;42.63;;;22.60;;
35126;SDS011;21300;52.006;5.798;2024-03-22T03:44:11;47.53;;;24.40;;
35126;SDS011;21300;52.006;5.798;2024-03-22T03:46:37;42.25;;;22.83;;
35126;SDS011;21300;52.006;5.798;2024-03-22T03:49:03;45.63;;;23.67;;
35126;SDS011;21300;52.006;5.798;2024-03-22T03:51:28;46.70;;;23.70;;
35126;SDS011;21300;52.006;5.798;2024-03-22T03:53:54;46.63;;;23.50;;
35126;SDS011;21300;52.006;5.798;2024-03-22T03:56:19;47.88;;;24.25;;
35126;SDS011;21300;52.006;5.798;2024-03-22T03:58:45;43.22;;;22.42;;
35126;SDS011;21300;52.006;5.798;2024-03-22T04:01:11;43.60;;;23.05;;
35126;SDS011;21300;52.006;5.798;2024-03-22T04:03:37;46.13;;;22.92;;
35126;SDS011;21300;52.006;5.798;2024-03-22T04:06:03;43.25;;;24.25;;
35126;SDS011;21300;52.006;5.798;2024-03-22T04:08:28;45.28;;;23.23;;
35126;SDS011;21300;52.006;5.798;2024-03-22T04:10:56;44.20;;;22.67;;
35126;SDS011;21300;52.006;5.798;2024-03-22T04:13:22;45.65;;;23.73;;
35126;SDS011;21300;52.006;5.798;2024-03-22T04:15:51;44.65;;;23.45;;
35126;SDS011;21300;52.006;5.798;2024-03-22T04:18:18;41.28;;;21.92;;
35126;SDS011;21300;52.006;5.798;2024-03-22T04:20:53;42.20;;;22.48;;
35126;SDS011;21300;52.006;5.798;2024-03-22T04:23:23;39.97;;;21.77;;
35126;SDS011;21300;52.006;5.798;2024-03-22T04:25:56;41.85;;;21.63;;
35126;SDS011;21300;52.006;5.798;2024-03-22T04:28:29;42.83;;;23.00;;
35126;SDS011;21300;52.006;5.798;2024-03-22T04:31:01;44.67;;;21.98;;
35126;SDS011;21300;52.006;5.798;2024-03-22T04:33:33;38.25;;;20.33;;
35126;SDS011;21300;52.006;5.798;2024-03-22T04:35:59;40.08;;;20.33;;
35126;SDS011;21300;52.006;5.798;2024-03-22T04:38:25;42.83;;;21.75;;
35126;SDS011;21300;52.006;5.798;2024-03-22T04:40:52;44.88;;;23.23;;
35126;SDS011;21300;52.006;5.798;2024-03-22T04:43:18;40.38;;;21.05;;
35126;SDS011;21300;52.006;5.798;2024-03-22T04:45:44;41.33;;;21.63;;
35126;SDS011;21300;52.006;5.798;2024-03-22T04:48:12;37.42;;;20.60;;
35126;SDS011;21300;52.006;5.798;2024-03-22T04:50:40;42.65;;;21.42;;
35126;SDS011;21300;52.006;5.798;2024-03-22T04:53:06;43.33;;;22.95;;
35126;SDS011;21300;52.006;5.798;2024-03-22T04:55:32;41.95;;;21.35;;
35126;SDS011;21300;52.006;5.798;2024-03-22T04:58:00;38.47;;;20.67;;
35126;SDS011;21300;52.006;5.798;2024-03-22T05:00:27;45.90;;;21.95;;
35126;SDS011;21300;52.006;5.798;2024-03-22T05:02:53;36.35;;;19.30;;
35126;SDS011;21300;52.006;5.798;2024-03-22T05:05:21;42.00;;;20.67;;
35126;SDS011;21300;52.006;5.798;2024-03-22T05:07:46;40.45;;;20.50;;
35126;SDS011;21300;52.006;5.798;2024-03-22T05:10:12;38.72;;;19.33;;
35126;SDS011;21300;52.006;5.798;2024-03-22T05:12:38;44.70;;;21.60;;
35126;SDS011;21300;52.006;5.798;2024-03-22T05:15:05;41.97;;;20.33;;
35126;SDS011;21300;52.006;5.798;2024-03-22T05:17:31;40.72;;;19.35;;
35126;SDS011;21300;52.006;5.798;2024-03-22T05:19:58;37.33;;;19.25;;
35126;SDS011;21300;52.006;5.798;2024-03-22T05:22:24;36.97;;;20.05;;
35126;SDS011;21300;52.006;5.798;2024-03-22T05:24:50;38.33;;;19.80;;
35126;SDS011;21300;52.006;5.798;2024-03-22T05:27:17;32.67;;;19.00;;
35126;SDS011;21300;52.006;5.798;2024-03-22T05:29:42;37.38;;;19.17;;
35126;SDS011;21300;52.006;5.798;2024-03-22T05:32:08;36.28;;;19.45;;
35126;SDS011;21300;52.006;5.798;2024-03-22T05:34:34;39.10;;;19.63;;
35126;SDS011;21300;52.006;5.798;2024-03-22T05:37:00;35.88;;;18.83;;
35126;SDS011;21300;52.006;5.798;2024-03-22T05:39:26;41.15;;;19.65;;
35126;SDS011;21300;52.006;5.798;2024-03-22T05:41:52;36.88;;;18.10;;
35126;SDS011;21300;52.006;5.798;2024-03-22T05:44:19;35.28;;;19.25;;
35126;SDS011;21300;52.006;5.798;2024-03-22T05:46:46;35.60;;;17.83;;
35126;SDS011;21300;52.006;5.798;2024-03-22T05:49:12;37.15;;;18.88;;
35126;SDS011;21300;52.006;5.798;2024-03-22T05:51:37;35.97;;;18.40;;
35126;SDS011;21300;52.006;5.798;2024-03-22T05:54:03;37.80;;;19.02;;
35126;SDS011;21300;52.006;5.798;2024-03-22T05:56:29;32.55;;;18.58;;
35126;SDS011;21300;52.006;5.798;2024-03-22T05:58:54;35.78;;;17.65;;
35126;SDS011;21300;52.006;5.798;2024-03-22T06:01:20;35.50;;;17.65;;
35126;SDS011;21300;52.006;5.798;2024-03-22T06:03:45;35.60;;;18.80;;
35126;SDS011;21300;52.006;5.798;2024-03-22T06:06:11;42.22;;;19.10;;
35126;SDS011;21300;52.006;5.798;2024-03-22T06:08:37;35.17;;;18.95;;
35126;SDS011;21300;52.006;5.798;2024-03-22T06:11:04;36.35;;;18.20;;
35126;SDS011;21300;52.006;5.798;2024-03-22T06:13:32;33.78;;;19.33;;
35126;SDS011;21300;52.006;5.798;2024-03-22T06:15:58;35.47;;;19.70;;
35126;SDS011;21300;52.006;5.798;2024-03-22T06:18:24;40.15;;;20.13;;
35126;SDS011;21300;52.006;5.798;2024-03-22T06:20:50;40.05;;;20.23;;
35126;SDS011;21300;52.006;5.798;2024-03-22T06:23:15;40.67;;;20.10;;
35126;SDS011;21300;52.006;5.798;2024-03-22T06:25:41;37.33;;;18.08;;
35126;SDS011;21300;52.006;5.798;2024-03-22T06:28:15;40.75;;;19.92;;
35126;SDS011;21300;52.006;5.798;2024-03-22T06:30:41;36.35;;;18.52;;
35126;SDS011;21300;52.006;5.798;2024-03-22T06:33:06;36.08;;;18.08;;
35126;SDS011;21300;52.006;5.798;2024-03-22T06:35:32;33.28;;;18.48;;
35126;SDS011;21300;52.006;5.798;2024-03-22T06:37:58;36.95;;;18.27;;
35126;SDS011;21300;52.006;5.798;2024-03-22T06:40:24;40.92;;;19.90;;
35126;SDS011;21300;52.006;5.798;2024-03-22T06:42:50;32.45;;;18.08;;
35126;SDS011;21300;52.006;5.798;2024-03-22T06:45:15;35.10;;;17.77;;
35126;SDS011;21300;52.006;5.798;2024-03-22T06:47:41;33.83;;;17.77;;
35126;SDS011;21300;52.006;5.798;2024-03-22T06:50:07;36.85;;;17.23;;
35126;SDS011;21300;52.006;5.798;2024-03-22T06:52:32;31.27;;;17.63;;
35126;SDS011;21300;52.006;5.798;2024-03-22T06:54:58;33.60;;;17.65;;
35126;SDS011;21300;52.006;5.798;2024-03-22T06:57:24;36.30;;;17.77;;
35126;SDS011;21300;52.006;5.798;2024-03-22T06:59:49;29.05;;;15.55;;
35126;SDS011;21300;52.006;5.798;2024-03-22T07:02:15;35.45;;;17.63;;
35126;SDS011;21300;52.006;5.798;2024-03-22T07:04:40;30.73;;;17.08;;
35126;SDS011;21300;52.006;5.798;2024-03-22T07:07:06;36.25;;;17.40;;
35126;SDS011;21300;52.006;5.798;2024-03-22T07:09:35;36.28;;;17.42;;
35126;SDS011;21300;52.006;5.798;2024-03-22T07:12:01;30.77;;;16.13;;
35126;SDS011;21300;52.006;5.798;2024-03-22T07:14:27;30.85;;;17.15;;
35126;SDS011;21300;52.006;5.798;2024-03-22T07:16:52;34.47;;;16.83;;
35126;SDS011;21300;52.006;5.798;2024-03-22T07:19:21;33.50;;;16.27;;
35126;SDS011;21300;52.006;5.798;2024-03-22T07:21:47;28.48;;;16.50;;
35126;SDS011;21300;52.006;5.798;2024-03-22T07:24:13;33.60;;;16.73;;
35126;SDS011;21300;52.006;5.798;2024-03-22T07:26:39;32.78;;;17.70;;
35126;SDS011;21300;52.006;5.798;2024-03-22T07:29:04;31.20;;;16.40;;
35126;SDS011;21300;52.006;5.798;2024-03-22T07:31:30;29.80;;;16.10;;
35126;SDS011;21300;52.006;5.798;2024-03-22T07:33:56;33.78;;;19.10;;
35126;SDS011;21300;52.006;5.798;2024-03-22T07:36:21;34.65;;;18.40;;
35126;SDS011;21300;52.006;5.798;2024-03-22T07:38:47;30.08;;;16.85;;
35126;SDS011;21300;52.006;5.798;2024-03-22T07:41:14;36.30;;;17.17;;
35126;SDS011;21300;52.006;5.798;2024-03-22T07:43:40;32.83;;;17.30;;
35126;SDS011;21300;52.006;5.798;2024-03-22T07:46:06;31.08;;;16.35;;
35126;SDS011;21300;52.006;5.798;2024-03-22T07:48:31;28.27;;;16.67;;
35126;SDS011;21300;52.006;5.798;2024-03-22T07:50:57;34.88;;;17.48;;
35126;SDS011;21300;52.006;5.798;2024-03-22T07:53:23;32.42;;;16.73;;
35126;SDS011;21300;52.006;5.798;2024-03-22T07:55:49;32.20;;;16.25;;
35126;SDS011;21300;52.006;5.798;2024-03-22T07:58:15;28.90;;;15.90;;
35126;SDS011;21300;52.006;5.798;2024-03-22T08:00:41;35.33;;;17.83;;
35126;SDS011;21300;52.006;5.798;2024-03-22T08:03:06;31.05;;;16.23;;
35126;SDS011;21300;52.006;5.798;2024-03-22T08:05:33;32.72;;;16.92;;
35126;SDS011;21300;52.006;5.798;2024-03-22T08:07:58;34.03;;;16.13;;
35126;SDS011;21300;52.006;5.798;2024-03-22T08:10:24;32.30;;;16.83;;
35126;SDS011;21300;52.006;5.798;2024-03-22T08:12:50;31.75;;;16.63;;
35126;SDS011;21300;52.006;5.798;2024-03-22T08:15:15;30.55;;;16.48;;
35126;SDS011;21300;52.006;5.798;2024-03-22T08:17:41;34.42;;;16.00;;
35126;SDS011;21300;52.006;5.798;2024-03-22T08:20:07;30.27;;;16.10;;
35126;SDS011;21300;52.006;5.798;2024-03-22T08:22:32;34.05;;;17.42;;
35126;SDS011;21300;52.006;5.798;2024-03-22T08:24:58;34.58;;;16.38;;
35126;SDS011;21300;52.006;5.798;2024-03-22T08:27:27;34.25;;;16.92;;
35126;SDS011;21300;52.006;5.798;2024-03-22T08:29:52;31.67;;;16.33;;
35126;SDS011;21300;52.006;5.798;2024-03-22T08:32:18;33.47;;;16.38;;
35126;SDS011;21300;52.006;5.798;2024-03-22T08:34:44;33.30;;;17.55;;
35126;SDS011;21300;52.006;5.798;2024-03-22T08:37:09;30.70;;;15.95;;
35126;SDS011;21300;52.006;5.798;2024-03-22T08:39:35;32.78;;;16.88;;
35126;SDS011;21300;52.006;5.798;2024-03-22T08:42:01;29.75;;;16.70;;
35126;SDS011;21300;52.006;5.798;2024-03-22T08:44:26;35.58;;;17.85;;
35126;SDS011;21300;52.006;5.798;2024-03-22T08:46:52;36.72;;;16.75;;
35126;SDS011;21300;52.006;5.798;2024-03-22T08:49:18;33.67;;;17.90;;
35126;SDS011;21300;52.006;5.798;2024-03-22T08:51:44;36.45;;;19.40;;
35126;SDS011;21300;52.006;5.798;2024-03-22T08:54:11;38.30;;;18.65;;
35126;SDS011;21300;52.006;5.798;2024-03-22T08:56:36;38.70;;;20.05;;
35126;SDS011;21300;52.006;5.798;2024-03-22T08:59:02;38.75;;;19.95;;
35126;SDS011;21300;52.006;5.798;2024-03-22T09:01:27;37.17;;;20.20;;
35126;SDS011;21300;52.006;5.798;2024-03-22T09:03:53;39.35;;;19.90;;
35126;SDS011;21300;52.006;5.798;2024-03-22T09:06:19;45.53;;;21.45;;
35126;SDS011;21300;52.006;5.798;2024-03-22T09:08:44;41.92;;;20.50;;
35126;SDS011;21300;52.006;5.798;2024-03-22T09:11:10;40.05;;;21.13;;
35126;SDS011;21300;52.006;5.798;2024-03-22T09:13:37;41.58;;;21.25;;
35126;SDS011;21300;52.006;5.798;2024-03-22T09:16:03;45.88;;;21.45;;
35126;SDS011;21300;52.006;5.798;2024-03-22T09:18:29;41.00;;;21.08;;
35126;SDS011;21300;52.006;5.798;2024-03-22T09:20:55;38.38;;;20.88;;
35126;SDS011;21300;52.006;5.798;2024-03-22T09:23:21;39.60;;;21.27;;
35126;SDS011;21300;52.006;5.798;2024-03-22T09:25:47;48.30;;;23.73;;
35126;SDS011;21300;52.006;5.798;2024-03-22T09:28:13;47.58;;;23.00;;
35126;SDS011;21300;52.006;5.798;2024-03-22T09:30:39;45.75;;;20.90;;
35126;SDS011;21300;52.006;5.798;2024-03-22T09:33:06;45.35;;;22.83;;
35126;SDS011;21300;52.006;5.798;2024-03-22T09:35:36;41.75;;;21.67;;
35126;SDS011;21300;52.006;5.798;2024-03-22T09:38:01;41.40;;;21.75;;
35126;SDS011;21300;52.006;5.798;2024-03-22T09:40:28;47.35;;;21.40;;
35126;SDS011;21300;52.006;5.798;2024-03-22T09:42:53;37.10;;;20.45;;
35126;SDS011;21300;52.006;5.798;2024-03-22T09:45:24;44.38;;;22.42;;
35126;SDS011;21300;52.006;5.798;2024-03-22T09:47:51;45.00;;;22.35;;
35126;SDS011;21300;52.006;5.798;2024-03-22T09:50:20;47.58;;;22.40;;
35126;SDS011;21300;52.006;5.798;2024-03-22T09:52:46;43.47;;;21.80;;
35126;SDS011;21300;52.006;5.798;2024-03-22T09:55:13;41.90;;;21.83;;
35126;SDS011;21300;52.006;5.798;2024-03-22T09:57:39;43.40;;;21.77;;
35126;SDS011;21300;52.006;5.798;2024-03-22T10:00:07;40.30;;;20.95;;
35126;SDS011;21300;52.006;5.798;2024-03-22T10:02:34;39.63;;;21.23;;
35126;SDS011;21300;52.006;5.798;2024-03-22T10:05:00;44.20;;;21.92;;
35126;SDS011;21300;52.006;5.798;2024-03-22T10:07:27;42.83;;;21.70;;
35126;SDS011;21300;52.006;5.798;2024-03-22T10:09:57;45.65;;;21.33;;
35126;SDS011;21300;52.006;5.798;2024-03-22T10:12:25;45.40;;;22.75;;
35126;SDS011;21300;52.006;5.798;2024-03-22T10:14:57;40.85;;;20.63;;
35126;SDS011;21300;52.006;5.798;2024-03-22T10:17:26;40.38;;;21.00;;
35126;SDS011;21300;52.006;5.798;2024-03-22T10:19:52;36.58;;;20.70;;
35126;SDS011;21300;52.006;5.798;2024-03-22T10:22:17;36.25;;;19.15;;
35126;SDS011;21300;52.006;5.798;2024-03-22T10:24:43;34.55;;;18.40;;
35126;SDS011;21300;52.006;5.798;2024-03-22T10:27:09;40.40;;;19.85;;
35126;SDS011;21300;52.006;5.798;2024-03-22T10:29:35;38.60;;;18.75;;
35126;SDS011;21300;52.006;5.798;2024-03-22T10:32:01;34.40;;;17.52;;
35126;SDS011;21300;52.006;5.798;2024-03-22T10:34:28;30.05;;;17.10;;
35126;SDS011;21300;52.006;5.798;2024-03-22T10:36:57;29.20;;;15.82;;
35126;SDS011;21300;52.006;5.798;2024-03-22T10:39:28;29.98;;;16.10;;
35126;SDS011;21300;52.006;5.798;2024-03-22T10:41:55;27.13;;;16.45;;
35126;SDS011;21300;52.006;5.798;2024-03-22T10:44:21;24.30;;;14.00;;
35126;SDS011;21300;52.006;5.798;2024-03-22T10:46:47;23.80;;;13.07;;
35126;SDS011;21300;52.006;5.798;2024-03-22T10:49:17;25.52;;;13.95;;
35126;SDS011;21300;52.006;5.798;2024-03-22T10:51:49;27.33;;;13.50;;
35126;SDS011;21300;52.006;5.798;2024-03-22T10:54:26;19.55;;;11.95;;
35126;SDS011;21300;52.006;5.798;2024-03-22T10:56:56;24.00;;;12.25;;
35126;SDS011;21300;52.006;5.798;2024-03-22T10:59:22;22.17;;;13.90;;
35126;SDS011;21300;52.006;5.798;2024-03-22T11:01:49;24.60;;;13.63;;
35126;SDS011;21300;52.006;5.798;2024-03-22T11:04:15;21.83;;;12.75;;
35126;SDS011;21300;52.006;5.798;2024-03-22T11:06:51;22.25;;;13.27;;
35126;SDS011;21300;52.006;5.798;2024-03-22T11:09:23;23.02;;;12.45;;
35126;SDS011;21300;52.006;5.798;2024-03-22T11:11:53;18.25;;;11.75;;
35126;SDS011;21300;52.006;5.798;2024-03-22T11:14:21;21.83;;;12.35;;
35126;SDS011;21300;52.006;5.798;2024-03-22T11:16:49;17.92;;;11.18;;
35126;SDS011;21300;52.006;5.798;2024-03-22T11:19:15;16.40;;;10.32;;
35126;SDS011;21300;52.006;5.798;2024-03-22T11:21:41;18.50;;;10.68;;
35126;SDS011;21300;52.006;5.798;2024-03-22T11:24:06;18.33;;;9.77;;
35126;SDS011;21300;52.006;5.798;2024-03-22T11:26:32;21.80;;;11.30;;
35126;SDS011;21300;52.006;5.798;2024-03-22T11:28:59;17.67;;;9.38;;
35126;SDS011;21300;52.006;5.798;2024-03-22T11:31:24;16.88;;;9.82;;
35126;SDS011;21300;52.006;5.798;2024-03-22T11:33:55;15.60;;;9.65;;
35126;SDS011;21300;52.006;5.798;2024-03-22T11:36:22;14.45;;;9.43;;
35126;SDS011;21300;52.006;5.798;2024-03-22T11:38:48;13.95;;;8.90;;
35126;SDS011;21300;52.006;5.798;2024-03-22T11:41:18;13.15;;;8.68;;
35126;SDS011;21300;52.006;5.798;2024-03-22T11:43:47;13.30;;;8.60;;
35126;SDS011;21300;52.006;5.798;2024-03-22T11:46:14;14.77;;;9.00;;
35126;SDS011;21300;52.006;5.798;2024-03-22T11:48:41;14.23;;;8.57;;
35126;SDS011;21300;52.006;5.798;2024-03-22T11:51:09;10.30;;;7.70;;
35126;SDS011;21300;52.006;5.798;2024-03-22T11:53:35;11.77;;;8.30;;
35126;SDS011;21300;52.006;5.798;2024-03-22T11:56:02;12.48;;;8.15;;
35126;SDS011;21300;52.006;5.798;2024-03-22T11:58:29;11.50;;;7.88;;
35126;SDS011;21300;52.006;5.798;2024-03-22T12:00:55;14.63;;;8.38;;
35126;SDS011;21300;52.006;5.798;2024-03-22T12:03:24;10.85;;;8.00;;
35126;SDS011;21300;52.006;5.798;2024-03-22T12:05:52;9.40;;;6.68;;
35126;SDS011;21300;52.006;5.798;2024-03-22T12:08:19;11.13;;;7.40;;
35126;SDS011;21300;52.006;5.798;2024-03-22T12:10:45;12.05;;;6.85;;
35126;SDS011;21300;52.006;5.798;2024-03-22T12:13:10;10.15;;;7.05;;
35126;SDS011;21300;52.006;5.798;2024-03-22T12:15:36;9.43;;;6.50;;
35126;SDS011;21300;52.006;5.798;2024-03-22T12:18:02;8.40;;;6.05;;
35126;SDS011;21300;52.006;5.798;2024-03-22T12:20:28;9.85;;;6.95;;
35126;SDS011;21300;52.006;5.798;2024-03-22T12:22:54;9.90;;;6.68;;
35126;SDS011;21300;52.006;5.798;2024-03-22T12:25:20;11.63;;;6.22;;
35126;SDS011;21300;52.006;5.798;2024-03-22T12:27:46;11.07;;;6.88;;
35126;SDS011;21300;52.006;5.798;2024-03-22T12:30:12;10.88;;;7.22;;
35126;SDS011;21300;52.006;5.798;2024-03-22T12:32:38;11.75;;;6.97;;
35126;SDS011;21300;52.006;5.798;2024-03-22T12:35:04;10.93;;;6.68;;
35126;SDS011;21300;52.006;5.798;2024-03-22T12:37:30;10.70;;;6.18;;
35126;SDS011;21300;52.006;5.798;2024-03-22T12:39:56;10.32;;;6.75;;
35126;SDS011;21300;52.006;5.798;2024-03-22T12:42:21;13.10;;;6.82;;
35126;SDS011;21300;52.006;5.798;2024-03-22T12:44:47;7.85;;;5.50;;
35126;SDS011;21300;52.006;5.798;2024-03-22T12:47:13;9.07;;;6.20;;
35126;SDS011;21300;52.006;5.798;2024-03-22T12:49:39;10.82;;;6.70;;
35126;SDS011;21300;52.006;5.798;2024-03-22T12:52:05;9.90;;;5.88;;
35126;SDS011;21300;52.006;5.798;2024-03-22T12:54:31;9.88;;;5.70;;
35126;SDS011;21300;52.006;5.798;2024-03-22T12:56:57;8.20;;;5.35;;
35126;SDS011;21300;52.006;5.798;2024-03-22T12:59:23;7.85;;;5.60;;
35126;SDS011;21300;52.006;5.798;2024-03-22T13:01:48;6.50;;;4.22;;
35126;SDS011;21300;52.006;5.798;2024-03-22T13:04:14;7.63;;;4.88;;
35126;SDS011;21300;52.006;5.798;2024-03-22T13:06:40;9.20;;;5.25;;
35126;SDS011;21300;52.006;5.798;2024-03-22T13:09:05;7.95;;;5.32;;
35126;SDS011;21300;52.006;5.798;2024-03-22T13:11:34;6.72;;;5.15;;
35126;SDS011;21300;52.006;5.798;2024-03-22T13:14:00;7.25;;;4.93;;
35126;SDS011;21300;52.006;5.798;2024-03-22T13:16:26;6.03;;;4.65;;
35126;SDS011;21300;52.006;5.798;2024-03-22T13:18:51;6.28;;;4.07;;
35126;SDS011;21300;52.006;5.798;2024-03-22T13:21:17;5.20;;;3.53;;
35126;SDS011;21300;52.006;5.798;2024-03-22T13:23:43;5.78;;;4.10;;
35126;SDS011;21300;52.006;5.798;2024-03-22T13:26:08;5.53;;;3.85;;
35126;SDS011;21300;52.006;5.798;2024-03-22T13:28:34;6.70;;;4.65;;
35126;SDS011;21300;52.006;5.798;2024-03-22T13:31:03;6.57;;;4.10;;
35126;SDS011;21300;52.006;5.798;2024-03-22T13:33:35;5.85;;;3.97;;
35126;SDS011;21300;52.006;5.798;2024-03-22T13:36:01;6.15;;;4.15;;
35126;SDS011;21300;52.006;5.798;2024-03-22T13:38:29;6.78;;;4.30;;
35126;SDS011;21300;52.006;5.798;2024-03-22T13:40:55;5.70;;;3.92;;
35126;SDS011;21300;52.006;5.798;2024-03-22T13:43:22;6.00;;;3.25;;
35126;SDS011;21300;52.006;5.798;2024-03-22T13:45:50;6.93;;;3.63;;
35126;SDS011;21300;52.006;5.798;2024-03-22T13:48:20;6.63;;;3.97;;
35126;SDS011;21300;52.006;5.798;2024-03-22T13:50:49;8.10;;;4.18;;
35126;SDS011;21300;52.006;5.798;2024-03-22T13:53:21;8.45;;;4.25;;
35126;SDS011;21300;52.006;5.798;2024-03-22T13:55:48;8.15;;;4.00;;
35126;SDS011;21300;52.006;5.798;2024-03-22T13:58:14;10.50;;;5.05;;
35126;SDS011;21300;52.006;5.798;2024-03-22T14:00:40;11.27;;;4.72;;
35126;SDS011;21300;52.006;5.798;2024-03-22T14:03:06;7.78;;;5.10;;
35126;SDS011;21300;52.006;5.798;2024-03-22T14:05:32;6.95;;;4.18;;
35126;SDS011;21300;52.006;5.798;2024-03-22T14:07:58;9.27;;;5.20;;
35126;SDS011;21300;52.006;5.798;2024-03-22T14:10:24;7.80;;;4.32;;
35126;SDS011;21300;52.006;5.798;2024-03-22T14:12:52;8.00;;;4.93;;
35126;SDS011;21300;52.006;5.798;2024-03-22T14:15:18;7.25;;;4.47;;
35126;SDS011;21300;52.006;5.798;2024-03-22T14:17:44;11.82;;;5.00;;
35126;SDS011;21300;52.006;5.798;2024-03-22T14:20:10;6.93;;;4.50;;
35126;SDS011;21300;52.006;5.798;2024-03-22T14:22:39;6.15;;;4.25;;